sensor_id;sensor_type;location;lat;lon;timestamp;pressure;altitude;pressure_sealevel;temperature;humidity
48796;BME280;34607;48.520;-1.330;2022-12-18T08:27:19;100428.19;;;0.04;100.00
48796;BME280;34607;48.520;-1.330;2022-12-18T08:29:46;100421.50;;;0.06;100.00
48796;BME280;34607;48.520;-1.330;2022-12-18T08:32:13;100426.84;;;0.10;100.00
48796;BME280;34607;48.520;-1.330;2022-12-18T08:34:40;100428.72;;;0.13;100.00
48796;BME280;34607;48.520;-1.330;2022-12-18T08:37:07;100423.09;;;0.18;100.00
48796;BME280;34607;48.520;-1.330;2022-12-18T08:39:34;100425.56;;;0.17;100.00
48796;BME280;34607;48.520;-1.330;2022-12-18T08:42:01;100426.00;;;0.25;100.00
48796;BME280;34607;48.520;-1.330;2022-12-18T08:44:47;100421.88;;;0.27;100.00
48796;BME280;34607;48.520;-1.330;2022-12-18T08:47:14;100414.63;;;0.33;100.00
48796;BME280;34607;48.520;-1.330;2022-12-18T08:49:41;100423.91;;;0.32;100.00
48796;BME280;34607;48.520;-1.330;2022-12-18T08:52:08;100409.66;;;0.36;100.00
48796;BME280;34607;48.520;-1.330;2022-12-18T08:54:36;100390.66;;;0.29;100.00
48796;BME280;34607;48.520;-1.330;2022-12-18T08:57:03;100393.06;;;0.43;100.00
48796;BME280;34607;48.520;-1.330;2022-12-18T08:59:30;100394.13;;;0.46;100.00
48796;BME280;34607;48.520;-1.330;2022-12-18T09:01:58;100399.41;;;0.49;100.00
48796;BME280;34607;48.520;-1.330;2022-12-18T09:04:26;100392.72;;;0.51;100.00
48796;BME280;34607;48.520;-1.330;2022-12-18T09:06:55;100371.66;;;0.54;100.00
48796;BME280;34607;48.520;-1.330;2022-12-18T09:09:22;100390.53;;;0.58;100.00
48796;BME280;34607;48.520;-1.330;2022-12-18T09:11:50;100384.81;;;0.62;100.00
48796;BME280;34607;48.520;-1.330;2022-12-18T09:14:17;100384.41;;;0.69;100.00
48796;BME280;34607;48.520;-1.330;2022-12-18T09:16:44;100368.28;;;0.70;100.00
48796;BME280;34607;48.520;-1.330;2022-12-18T09:19:12;100370.84;;;0.70;100.00
48796;BME280;34607;48.520;-1.330;2022-12-18T09:21:39;100374.53;;;0.75;100.00
48796;BME280;34607;48.520;-1.330;2022-12-18T09:24:10;100376.91;;;0.72;100.00
48796;BME280;34607;48.520;-1.330;2022-12-18T09:26:38;100379.72;;;0.77;100.00
48796;BME280;34607;48.520;-1.330;2022-12-18T09:29:05;100370.47;;;0.79;100.00
48796;BME280;34607;48.520;-1.330;2022-12-18T09:31:35;100346.00;;;0.66;100.00
48796;BME280;34607;48.520;-1.330;2022-12-18T09:34:05;100365.28;;;0.92;100.00
48796;BME280;34607;48.520;-1.330;2022-12-18T09:36:34;100363.75;;;0.96;100.00
48796;BME280;34607;48.520;-1.330;2022-12-18T09:39:02;100360.75;;;1.03;100.00
48796;BME280;34607;48.520;-1.330;2022-12-18T09:41:43;100361.19;;;1.10;100.00
48796;BME280;34607;48.520;-1.330;2022-12-18T09:44:17;100354.50;;;1.12;100.00
48796;BME280;34607;48.520;-1.330;2022-12-18T09:46:47;100353.16;;;1.19;100.00
48796;BME280;34607;48.520;-1.330;2022-12-18T09:49:18;100356.03;;;1.25;100.00
48796;BME280;34607;48.520;-1.330;2022-12-18T09:51:52;100357.78;;;1.26;100.00
48796;BME280;34607;48.520;-1.330;2022-12-18T09:54:24;100368.78;;;1.25;100.00
48796;BME280;34607;48.520;-1.330;2022-12-18T09:56:52;100361.22;;;1.27;100.00
48796;BME280;34607;48.520;-1.330;2022-12-18T09:59:23;100367.44;;;1.32;100.00
48796;BME280;34607;48.520;-1.330;2022-12-18T10:01:51;100369.84;;;1.29;100.00
48796;BME280;34607;48.520;-1.330;2022-12-18T10:04:18;100364.00;;;1.31;100.00
48796;BME280;34607;48.520;-1.330;2022-12-18T10:06:53;100355.47;;;1.31;100.00
48796;BME280;34607;48.520;-1.330;2022-12-18T10:09:28;100364.25;;;1.36;100.00
48796;BME280;34607;48.520;-1.330;2022-12-18T10:12:04;100373.13;;;1.43;100.00
48796;BME280;34607;48.520;-1.330;2022-12-18T10:14:34;100382.81;;;1.34;100.00
48796;BME280;34607;48.520;-1.330;2022-12-18T10:17:10;100385.06;;;1.44;100.00
48796;BME280;34607;48.520;-1.330;2022-12-18T10:19:42;100355.31;;;1.28;100.00
48796;BME280;34607;48.520;-1.330;2022-12-18T10:22:29;100373.69;;;1.37;100.00
48796;BME280;34607;48.520;-1.330;2022-12-18T10:25:04;100362.66;;;1.38;100.00
48796;BME280;34607;48.520;-1.330;2022-12-18T10:27:32;100369.44;;;1.38;100.00
48796;BME280;34607;48.520;-1.330;2022-12-18T10:30:01;100356.03;;;1.42;100.00
48796;BME280;34607;48.520;-1.330;2022-12-18T10:32:31;100355.97;;;1.40;100.00
48796;BME280;34607;48.520;-1.330;2022-12-18T10:34:58;100356.03;;;1.42;100.00
48796;BME280;34607;48.520;-1.330;2022-12-18T10:37:29;100339.09;;;1.42;100.00
48796;BME280;34607;48.520;-1.330;2022-12-18T10:40:08;100348.81;;;1.49;100.00
48796;BME280;34607;48.520;-1.330;2022-12-18T10:42:37;100312.75;;;1.43;100.00
48796;BME280;34607;48.520;-1.330;2022-12-18T10:45:10;100324.41;;;1.55;100.00
48796;BME280;34607;48.520;-1.330;2022-12-18T10:47:42;100335.31;;;1.52;100.00
48796;BME280;34607;48.520;-1.330;2022-12-18T10:50:19;100313.31;;;1.54;100.00
48796;BME280;34607;48.520;-1.330;2022-12-18T10:52:55;100291.63;;;1.29;100.00
48796;BME280;34607;48.520;-1.330;2022-12-18T10:55:25;100301.38;;;1.53;100.00
48796;BME280;34607;48.520;-1.330;2022-12-18T10:58:13;100304.22;;;1.59;100.00
48796;BME280;34607;48.520;-1.330;2022-12-18T11:00:42;100299.09;;;1.59;100.00
48796;BME280;34607;48.520;-1.330;2022-12-18T11:03:31;100295.19;;;1.66;100.00
48796;BME280;34607;48.520;-1.330;2022-12-18T11:06:03;100295.78;;;1.60;100.00
48796;BME280;34607;48.520;-1.330;2022-12-18T11:08:33;100307.25;;;1.68;100.00
48796;BME280;34607;48.520;-1.330;2022-12-18T11:11:00;100289.63;;;1.73;100.00
48796;BME280;34607;48.520;-1.330;2022-12-18T11:13:29;100285.84;;;1.83;100.00
48796;BME280;34607;48.520;-1.330;2022-12-18T11:15:57;100289.22;;;1.82;100.00
48796;BME280;34607;48.520;-1.330;2022-12-18T11:18:27;100290.09;;;1.82;100.00
48796;BME280;34607;48.520;-1.330;2022-12-18T11:20:57;100290.00;;;1.81;100.00
48796;BME280;34607;48.520;-1.330;2022-12-18T11:23:26;100286.50;;;1.79;100.00
48796;BME280;34607;48.520;-1.330;2022-12-18T11:25:57;100286.50;;;1.79;100.00
48796;BME280;34607;48.520;-1.330;2022-12-18T11:28:28;100284.56;;;1.75;100.00
48796;BME280;34607;48.520;-1.330;2022-12-18T11:31:17;100255.53;;;1.73;100.00
48796;BME280;34607;48.520;-1.330;2022-12-18T11:33:46;100285.22;;;1.87;100.00
48796;BME280;34607;48.520;-1.330;2022-12-18T11:36:17;100294.59;;;1.88;100.00
48796;BME280;34607;48.520;-1.330;2022-12-18T11:38:47;100278.50;;;1.89;100.00
48796;BME280;34607;48.520;-1.330;2022-12-18T11:41:20;100276.97;;;1.93;100.00
48796;BME280;34607;48.520;-1.330;2022-12-18T11:43:51;100268.91;;;1.85;100.00
48796;BME280;34607;48.520;-1.330;2022-12-18T11:46:38;100267.47;;;1.90;100.00
48796;BME280;34607;48.520;-1.330;2022-12-18T11:49:12;100260.63;;;1.89;100.00
48796;BME280;34607;48.520;-1.330;2022-12-18T11:51:47;100261.72;;;1.94;100.00
48796;BME280;34607;48.520;-1.330;2022-12-18T11:54:17;100244.97;;;1.99;100.00
48796;BME280;34607;48.520;-1.330;2022-12-18T11:56:47;100235.47;;;1.97;100.00
48796;BME280;34607;48.520;-1.330;2022-12-18T11:59:21;100231.59;;;2.05;100.00
48796;BME280;34607;48.520;-1.330;2022-12-18T12:01:55;100225.72;;;2.06;100.00
48796;BME280;34607;48.520;-1.330;2022-12-18T12:07:35;100222.72;;;2.15;100.00
48796;BME280;34607;48.520;-1.330;2022-12-18T12:10:18;100203.50;;;2.05;100.00
48796;BME280;34607;48.520;-1.330;2022-12-18T12:13:04;100216.31;;;2.23;100.00
48796;BME280;34607;48.520;-1.330;2022-12-18T12:15:40;100212.78;;;2.21;100.00
48796;BME280;34607;48.520;-1.330;2022-12-18T12:18:21;100206.09;;;2.23;100.00
48796;BME280;34607;48.520;-1.330;2022-12-18T12:20:53;100198.53;;;2.26;100.00
48796;BME280;34607;48.520;-1.330;2022-12-18T12:23:32;100187.53;;;2.27;100.00
48796;BME280;34607;48.520;-1.330;2022-12-18T12:26:04;100177.97;;;2.23;100.00
48796;BME280;34607;48.520;-1.330;2022-12-18T12:28:52;100157.91;;;2.13;100.00
48796;BME280;34607;48.520;-1.330;2022-12-18T12:31:27;100195.75;;;2.39;100.00
48796;BME280;34607;48.520;-1.330;2022-12-18T12:34:04;100186.94;;;2.51;100.00
48796;BME280;34607;48.520;-1.330;2022-12-18T12:36:42;100188.16;;;2.59;100.00
48796;BME280;34607;48.520;-1.330;2022-12-18T12:39:15;100189.75;;;2.57;100.00
48796;BME280;34607;48.520;-1.330;2022-12-18T12:41:45;100156.41;;;2.54;100.00
48796;BME280;34607;48.520;-1.330;2022-12-18T12:44:48;100168.91;;;2.67;100.00
48796;BME280;34607;48.520;-1.330;2022-12-18T12:47:20;100160.03;;;2.59;100.00
48796;BME280;34607;48.520;-1.330;2022-12-18T12:49:49;100161.69;;;2.58;100.00
48796;BME280;34607;48.520;-1.330;2022-12-18T12:52:22;100158.28;;;2.58;100.00
48796;BME280;34607;48.520;-1.330;2022-12-18T12:54:53;100159.13;;;2.58;100.00
48796;BME280;34607;48.520;-1.330;2022-12-18T12:57:30;100147.25;;;2.59;100.00
48796;BME280;34607;48.520;-1.330;2022-12-18T13:00:07;100149.66;;;2.56;100.00
48796;BME280;34607;48.520;-1.330;2022-12-18T13:02:41;100151.41;;;2.57;100.00
48796;BME280;34607;48.520;-1.330;2022-12-18T13:05:16;100145.19;;;2.70;100.00
48796;BME280;34607;48.520;-1.330;2022-12-18T13:07:49;100134.41;;;2.77;100.00
48796;BME280;34607;48.520;-1.330;2022-12-18T13:10:26;100137.31;;;2.85;100.00
48796;BME280;34607;48.520;-1.330;2022-12-18T13:12:57;100139.03;;;2.86;100.00
48796;BME280;34607;48.520;-1.330;2022-12-18T13:15:30;100139.91;;;2.86;100.00
48796;BME280;34607;48.520;-1.330;2022-12-18T13:18:25;100109.13;;;2.83;100.00
48796;BME280;34607;48.520;-1.330;2022-12-18T13:21:04;100139.19;;;2.89;100.00
48796;BME280;34607;48.520;-1.330;2022-12-18T13:23:39;100118.03;;;2.93;100.00
48796;BME280;34607;48.520;-1.330;2022-12-18T13:26:29;100125.59;;;2.90;100.00
48796;BME280;34607;48.520;-1.330;2022-12-18T13:28:58;100115.75;;;2.99;100.00
48796;BME280;34607;48.520;-1.330;2022-12-18T13:34:35;100117.53;;;3.00;100.00
48796;BME280;34607;48.520;-1.330;2022-12-18T13:37:39;100130.41;;;3.03;100.00
48796;BME280;34607;48.520;-1.330;2022-12-18T13:43:23;100094.22;;;2.94;100.00
48796;BME280;34607;48.520;-1.330;2022-12-18T13:46:00;100111.09;;;3.10;100.00
48796;BME280;34607;48.520;-1.330;2022-12-18T13:48:30;100076.41;;;2.95;100.00
48796;BME280;34607;48.520;-1.330;2022-12-18T13:51:02;100092.94;;;3.04;100.00
48796;BME280;34607;48.520;-1.330;2022-12-18T13:53:34;100100.94;;;3.11;100.00
48796;BME280;34607;48.520;-1.330;2022-12-18T13:56:03;100079.41;;;3.06;100.00
48796;BME280;34607;48.520;-1.330;2022-12-18T13:58:30;100049.47;;;3.04;100.00
48796;BME280;34607;48.520;-1.330;2022-12-18T14:00:58;100066.25;;;3.18;100.00
48796;BME280;34607;48.520;-1.330;2022-12-18T14:03:29;100060.31;;;3.19;100.00
48796;BME280;34607;48.520;-1.330;2022-12-18T14:06:01;100062.97;;;3.22;100.00
48796;BME280;34607;48.520;-1.330;2022-12-18T14:08:34;100073.22;;;3.22;100.00
48796;BME280;34607;48.520;-1.330;2022-12-18T14:11:03;100049.91;;;3.14;100.00
48796;BME280;34607;48.520;-1.330;2022-12-18T14:13:35;100062.38;;;3.28;100.00
48796;BME280;34607;48.520;-1.330;2022-12-18T14:16:04;100032.97;;;3.18;100.00
48796;BME280;34607;48.520;-1.330;2022-12-18T14:18:38;100040.63;;;3.39;100.00
48796;BME280;34607;48.520;-1.330;2022-12-18T14:21:17;100050.00;;;3.38;100.00
48796;BME280;34607;48.520;-1.330;2022-12-18T14:23:45;100034.03;;;3.44;100.00
48796;BME280;34607;48.520;-1.330;2022-12-18T14:26:26;100034.91;;;3.45;100.00
48796;BME280;34607;48.520;-1.330;2022-12-18T14:28:53;100044.72;;;3.55;100.00
48796;BME280;34607;48.520;-1.330;2022-12-18T14:31:22;100044.66;;;3.53;100.00
48796;BME280;34607;48.520;-1.330;2022-12-18T14:33:51;100063.38;;;3.52;100.00
48796;BME280;34607;48.520;-1.330;2022-12-18T14:36:21;100055.16;;;3.61;100.00
48796;BME280;34607;48.520;-1.330;2022-12-18T14:38:51;100049.25;;;3.62;100.00
48796;BME280;34607;48.520;-1.330;2022-12-18T14:41:20;100052.09;;;3.70;100.00
48796;BME280;34607;48.520;-1.330;2022-12-18T14:43:49;100038.94;;;3.61;100.00
48796;BME280;34607;48.520;-1.330;2022-12-18T14:46:28;100041.13;;;3.72;100.00
48796;BME280;34607;48.520;-1.330;2022-12-18T14:48:57;100044.94;;;3.84;100.00
48796;BME280;34607;48.520;-1.330;2022-12-18T14:51:30;100052.94;;;3.91;100.00
48796;BME280;34607;48.520;-1.330;2022-12-18T14:53:59;100041.19;;;3.97;100.00
48796;BME280;34607;48.520;-1.330;2022-12-18T14:56:28;100046.75;;;4.09;100.00
48796;BME280;34607;48.520;-1.330;2022-12-18T14:58:58;100058.97;;;4.16;100.00
48796;BME280;34607;48.520;-1.330;2022-12-18T15:01:28;100047.31;;;4.24;100.00
48796;BME280;34607;48.520;-1.330;2022-12-18T15:03:57;100029.59;;;4.06;100.00
48796;BME280;34607;48.520;-1.330;2022-12-18T15:06:31;100021.88;;;4.29;100.00
48796;BME280;34607;48.520;-1.330;2022-12-18T15:09:00;100043.13;;;4.26;100.00
48796;BME280;34607;48.520;-1.330;2022-12-18T15:11:35;100037.44;;;4.34;100.00
48796;BME280;34607;48.520;-1.330;2022-12-18T15:14:22;100047.75;;;4.37;100.00
48796;BME280;34607;48.520;-1.330;2022-12-18T15:16:53;100008.94;;;4.26;100.00
48796;BME280;34607;48.520;-1.330;2022-12-18T15:19:22;100032.63;;;4.43;100.00
48796;BME280;34607;48.520;-1.330;2022-12-18T15:21:53;100029.44;;;4.50;100.00
48796;BME280;34607;48.520;-1.330;2022-12-18T15:24:27;100025.34;;;4.55;100.00
48796;BME280;34607;48.520;-1.330;2022-12-18T15:26:56;100019.72;;;4.65;100.00
48796;BME280;34607;48.520;-1.330;2022-12-18T15:29:23;100006.28;;;4.73;100.00
48796;BME280;34607;48.520;-1.330;2022-12-18T15:31:59;99988.84;;;4.62;100.00
48796;BME280;34607;48.520;-1.330;2022-12-18T15:34:27;100000.72;;;4.84;100.00
48796;BME280;34607;48.520;-1.330;2022-12-18T15:36:56;100025.16;;;4.99;100.00
48796;BME280;34607;48.520;-1.330;2022-12-18T15:39:23;100028.13;;;5.11;100.00
48796;BME280;34607;48.520;-1.330;2022-12-18T15:41:50;100030.22;;;5.23;100.00
48796;BME280;34607;48.520;-1.330;2022-12-18T15:44:35;100008.72;;;5.19;100.00
48796;BME280;34607;48.520;-1.330;2022-12-18T15:47:02;100042.66;;;5.38;100.00
48796;BME280;34607;48.520;-1.330;2022-12-18T15:49:29;100039.63;;;5.50;100.00
48796;BME280;34607;48.520;-1.330;2022-12-18T15:51:58;100045.00;;;5.57;100.00
48796;BME280;34607;48.520;-1.330;2022-12-18T15:54:26;100035.59;;;5.58;100.00
48796;BME280;34607;48.520;-1.330;2022-12-18T15:57:11;100035.69;;;5.61;100.00
48796;BME280;34607;48.520;-1.330;2022-12-18T15:59:50;100045.06;;;5.59;100.00
48796;BME280;34607;48.520;-1.330;2022-12-18T16:02:19;100055.19;;;5.54;100.00
48796;BME280;34607;48.520;-1.330;2022-12-18T16:04:48;100049.13;;;5.52;100.00
48796;BME280;34607;48.520;-1.330;2022-12-18T16:07:17;100036.22;;;5.51;100.00
48796;BME280;34607;48.520;-1.330;2022-12-18T16:09:44;100020.03;;;5.53;100.00
48796;BME280;34607;48.520;-1.330;2022-12-18T16:12:17;100022.28;;;5.42;100.00
48796;BME280;34607;48.520;-1.330;2022-12-18T16:14:45;100021.31;;;5.39;100.00
48796;BME280;34607;48.520;-1.330;2022-12-18T16:17:13;100028.00;;;5.34;100.00
48796;BME280;34607;48.520;-1.330;2022-12-18T16:19:40;100043.28;;;5.31;100.00
48796;BME280;34607;48.520;-1.330;2022-12-18T16:22:17;100037.19;;;5.27;100.00
48796;BME280;34607;48.520;-1.330;2022-12-18T16:24:46;100018.78;;;5.40;100.00
48796;BME280;34607;48.520;-1.330;2022-12-18T16:27:13;100028.16;;;5.38;100.00
48796;BME280;34607;48.520;-1.330;2022-12-18T16:29:40;100001.78;;;5.17;100.00
48796;BME280;34607;48.520;-1.330;2022-12-18T16:32:11;100017.50;;;5.26;100.00
48796;BME280;34607;48.520;-1.330;2022-12-18T16:34:39;100019.22;;;5.27;100.00
48796;BME280;34607;48.520;-1.330;2022-12-18T16:37:07;100036.31;;;5.27;100.00
48796;BME280;34607;48.520;-1.330;2022-12-18T16:39:37;100024.34;;;5.27;100.00
48796;BME280;34607;48.520;-1.330;2022-12-18T16:42:06;100042.38;;;5.29;100.00
48796;BME280;34607;48.520;-1.330;2022-12-18T16:44:35;100031.09;;;5.23;100.00
48796;BME280;34607;48.520;-1.330;2022-12-18T16:47:02;100023.44;;;5.25;100.00
48796;BME280;34607;48.520;-1.330;2022-12-18T16:49:30;100038.03;;;5.26;100.00
48796;BME280;34607;48.520;-1.330;2022-12-18T16:51:57;100022.63;;;5.26;100.00
48796;BME280;34607;48.520;-1.330;2022-12-18T16:54:27;100037.25;;;5.29;100.00
48796;BME280;34607;48.520;-1.330;2022-12-18T16:56:57;100047.34;;;5.24;100.00
48796;BME280;34607;48.520;-1.330;2022-12-18T16:59:25;100029.31;;;5.21;100.00
48796;BME280;34607;48.520;-1.330;2022-12-18T17:01:53;100022.38;;;5.18;100.00
48796;BME280;34607;48.520;-1.330;2022-12-18T17:04:22;100018.16;;;5.20;100.00
48796;BME280;34607;48.520;-1.330;2022-12-18T17:06:49;100019.13;;;5.24;100.00
48796;BME280;34607;48.520;-1.330;2022-12-18T17:09:19;100022.66;;;5.28;100.00
48796;BME280;34607;48.520;-1.330;2022-12-18T17:11:48;100010.66;;;5.27;100.00
48796;BME280;34607;48.520;-1.330;2022-12-18T17:14:18;100012.34;;;5.26;100.00
48796;BME280;34607;48.520;-1.330;2022-12-18T17:16:46;100004.34;;;5.17;100.00
48796;BME280;34607;48.520;-1.330;2022-12-18T17:19:13;100006.47;;;5.30;100.00
48796;BME280;34607;48.520;-1.330;2022-12-18T17:21:42;100049.09;;;5.25;100.00
48796;BME280;34607;48.520;-1.330;2022-12-18T17:24:09;100027.25;;;5.38;100.00
48796;BME280;34607;48.520;-1.330;2022-12-18T17:26:36;100009.97;;;5.32;100.00
48796;BME280;34607;48.520;-1.330;2022-12-18T17:29:03;99999.75;;;5.34;100.00
48796;BME280;34607;48.520;-1.330;2022-12-18T17:31:32;99988.69;;;5.36;100.00
48796;BME280;34607;48.520;-1.330;2022-12-18T17:34:00;99986.72;;;5.28;100.00
48796;BME280;34607;48.520;-1.330;2022-12-18T17:36:29;100004.94;;;5.35;100.00
48796;BME280;34607;48.520;-1.330;2022-12-18T17:38:59;100010.06;;;5.35;100.00
48796;BME280;34607;48.520;-1.330;2022-12-18T17:41:27;100007.66;;;5.40;100.00
48796;BME280;34607;48.520;-1.330;2022-12-18T17:43:56;100005.16;;;5.43;100.00
48796;BME280;34607;48.520;-1.330;2022-12-18T17:46:25;100017.41;;;5.50;100.00
48796;BME280;34607;48.520;-1.330;2022-12-18T17:48:55;100000.34;;;5.52;100.00
48796;BME280;34607;48.520;-1.330;2022-12-18T17:51:23;100006.53;;;5.59;100.00
48796;BME280;34607;48.520;-1.330;2022-12-18T17:53:50;99997.97;;;5.60;100.00
48796;BME280;34607;48.520;-1.330;2022-12-18T17:56:19;100018.53;;;5.60;100.00
48796;BME280;34607;48.520;-1.330;2022-12-18T17:58:47;99987.75;;;5.61;100.00
48796;BME280;34607;48.520;-1.330;2022-12-18T18:01:16;99987.81;;;5.63;100.00
48796;BME280;34607;48.520;-1.330;2022-12-18T18:03:44;100022.97;;;5.64;100.00
48796;BME280;34607;48.520;-1.330;2022-12-18T18:06:13;100007.72;;;5.70;100.00
48796;BME280;34607;48.520;-1.330;2022-12-18T18:08:40;99975.16;;;5.69;100.00
48796;BME280;34607;48.520;-1.330;2022-12-18T18:11:10;100007.81;;;5.73;100.00
48796;BME280;34607;48.520;-1.330;2022-12-18T18:13:55;99978.66;;;5.71;100.00
48796;BME280;34607;48.520;-1.330;2022-12-18T18:16:31;100005.34;;;5.76;100.00
48796;BME280;34607;48.520;-1.330;2022-12-18T18:19:02;99998.59;;;5.80;100.00
48796;BME280;34607;48.520;-1.330;2022-12-18T18:21:32;100007.47;;;5.90;100.00
48796;BME280;34607;48.520;-1.330;2022-12-18T18:24:00;100013.31;;;5.86;100.00
48796;BME280;34607;48.520;-1.330;2022-12-18T18:26:29;99999.81;;;5.91;100.00
48796;BME280;34607;48.520;-1.330;2022-12-18T18:28:58;100009.28;;;5.94;100.00
48796;BME280;34607;48.520;-1.330;2022-12-18T18:31:26;100004.38;;;6.00;100.00
48796;BME280;34607;48.520;-1.330;2022-12-18T18:33:54;100006.03;;;5.99;100.00
48796;BME280;34607;48.520;-1.330;2022-12-18T18:36:21;100012.84;;;5.97;100.00
48796;BME280;34607;48.520;-1.330;2022-12-18T18:38:50;100021.59;;;6.04;100.00
48796;BME280;34607;48.520;-1.330;2022-12-18T18:41:18;100022.63;;;6.09;100.00
48796;BME280;34607;48.520;-1.330;2022-12-18T18:43:47;99992.34;;;5.99;100.00
48796;BME280;34607;48.520;-1.330;2022-12-18T18:46:14;100030.56;;;6.18;100.00
48796;BME280;34607;48.520;-1.330;2022-12-18T18:48:42;100037.38;;;6.16;100.00
48796;BME280;34607;48.520;-1.330;2022-12-18T18:51:11;100040.25;;;6.26;100.00
48796;BME280;34607;48.520;-1.330;2022-12-18T18:53:40;100038.56;;;6.28;100.00
48796;BME280;34607;48.520;-1.330;2022-12-18T18:56:10;100027.38;;;6.26;100.00
48796;BME280;34607;48.520;-1.330;2022-12-18T18:58:38;100040.47;;;6.35;100.00
48796;BME280;34607;48.520;-1.330;2022-12-18T19:01:07;100042.28;;;6.37;100.00
48796;BME280;34607;48.520;-1.330;2022-12-18T19:03:36;100041.44;;;6.38;100.00
48796;BME280;34607;48.520;-1.330;2022-12-18T19:06:05;100064.00;;;6.49;100.00
48796;BME280;34607;48.520;-1.330;2022-12-18T19:08:35;100052.88;;;6.48;100.00
48796;BME280;34607;48.520;-1.330;2022-12-18T19:11:05;100049.59;;;6.54;100.00
48796;BME280;34607;48.520;-1.330;2022-12-18T19:13:54;100051.28;;;6.53;100.00
48796;BME280;34607;48.520;-1.330;2022-12-18T19:16:20;100057.25;;;6.52;100.00
48796;BME280;34607;48.520;-1.330;2022-12-18T19:18:47;100052.09;;;6.52;100.00
48796;BME280;34607;48.520;-1.330;2022-12-18T19:21:14;100049.72;;;6.59;100.00
48796;BME280;34607;48.520;-1.330;2022-12-18T19:23:41;100046.28;;;6.60;100.00
48796;BME280;34607;48.520;-1.330;2022-12-18T19:26:10;100055.78;;;6.61;100.00
48796;BME280;34607;48.520;-1.330;2022-12-18T19:28:37;100049.97;;;6.68;100.00
48796;BME280;34607;48.520;-1.330;2022-12-18T19:31:07;100059.63;;;6.77;100.00
48796;BME280;34607;48.520;-1.330;2022-12-18T19:33:37;100029.63;;;6.77;100.00
48796;BME280;34607;48.520;-1.330;2022-12-18T19:36:09;100053.84;;;6.85;100.00
48796;BME280;34607;48.520;-1.330;2022-12-18T19:38:37;100047.03;;;6.86;100.00
48796;BME280;34607;48.520;-1.330;2022-12-18T19:41:05;100053.97;;;6.90;100.00
48796;BME280;34607;48.520;-1.330;2022-12-18T19:43:32;100041.03;;;6.87;100.00
48796;BME280;34607;48.520;-1.330;2022-12-18T19:46:01;100054.94;;;6.93;100.00
48796;BME280;34607;48.520;-1.330;2022-12-18T19:48:31;100058.44;;;6.97;100.00
48796;BME280;34607;48.520;-1.330;2022-12-18T19:51:03;100069.69;;;6.99;100.00
48796;BME280;34607;48.520;-1.330;2022-12-18T19:53:30;100062.75;;;6.97;100.00
48796;BME280;34607;48.520;-1.330;2022-12-18T19:55:57;100050.69;;;6.94;100.00
48796;BME280;34607;48.520;-1.330;2022-12-18T19:58:24;100065.53;;;7.04;100.00
48796;BME280;34607;48.520;-1.330;2022-12-18T20:00:52;100056.09;;;7.05;100.00
48796;BME280;34607;48.520;-1.330;2022-12-18T20:03:19;100053.47;;;7.03;100.00
48796;BME280;34607;48.520;-1.330;2022-12-18T20:05:47;100046.66;;;7.05;100.00
48796;BME280;34607;48.520;-1.330;2022-12-18T20:08:14;100050.94;;;7.05;100.00
48796;BME280;34607;48.520;-1.330;2022-12-18T20:10:41;100044.97;;;7.07;100.00
48796;BME280;34607;48.520;-1.330;2022-12-18T20:13:13;100044.13;;;7.07;100.00
48796;BME280;34607;48.520;-1.330;2022-12-18T20:15:40;100040.00;;;7.13;100.00
48796;BME280;34607;48.520;-1.330;2022-12-18T20:18:08;100034.13;;;7.19;100.00
48796;BME280;34607;48.520;-1.330;2022-12-18T20:20:35;100042.91;;;7.27;100.00
48796;BME280;34607;48.520;-1.330;2022-12-18T20:23:04;100045.72;;;7.37;100.00
48796;BME280;34607;48.520;-1.330;2022-12-18T20:25:31;100051.91;;;7.45;100.00
48796;BME280;34607;48.520;-1.330;2022-12-18T20:27:58;100045.25;;;7.53;100.00
48796;BME280;34607;48.520;-1.330;2022-12-18T20:30:25;100047.00;;;7.54;100.00
48796;BME280;34607;48.520;-1.330;2022-12-18T20:32:52;100029.03;;;7.57;100.00
48796;BME280;34607;48.520;-1.330;2022-12-18T20:35:19;100041.13;;;7.60;100.00
48796;BME280;34607;48.520;-1.330;2022-12-18T20:37:47;100032.56;;;7.61;100.00
48796;BME280;34607;48.520;-1.330;2022-12-18T20:40:15;100027.44;;;7.64;100.00
48796;BME280;34607;48.520;-1.330;2022-12-18T20:42:42;100024.94;;;7.67;100.00
48796;BME280;34607;48.520;-1.330;2022-12-18T20:45:09;100019.06;;;7.71;100.00
48796;BME280;34607;48.520;-1.330;2022-12-18T20:47:36;100042.28;;;7.74;100.00
48796;BME280;34607;48.520;-1.330;2022-12-18T20:50:05;100044.13;;;7.78;100.00
48796;BME280;34607;48.520;-1.330;2022-12-18T20:52:32;100033.00;;;7.81;100.00
48796;BME280;34607;48.520;-1.330;2022-12-18T20:54:59;100039.06;;;7.83;100.00
48796;BME280;34607;48.520;-1.330;2022-12-18T20:57:31;100033.06;;;7.84;100.00
48796;BME280;34607;48.520;-1.330;2022-12-18T20:59:58;100059.75;;;7.86;100.00
48796;BME280;34607;48.520;-1.330;2022-12-18T21:02:25;100058.06;;;7.86;100.00
48796;BME280;34607;48.520;-1.330;2022-12-18T21:04:52;100047.75;;;7.86;100.00
48796;BME280;34607;48.520;-1.330;2022-12-18T21:07:19;100031.47;;;7.89;100.00
48796;BME280;34607;48.520;-1.330;2022-12-18T21:09:46;100033.19;;;7.88;100.00
48796;BME280;34607;48.520;-1.330;2022-12-18T21:12:14;100008.91;;;7.79;100.00
48796;BME280;34607;48.520;-1.330;2022-12-18T21:15:00;100024.41;;;7.80;100.00
48796;BME280;34607;48.520;-1.330;2022-12-18T21:17:27;100034.00;;;7.87;100.00
48796;BME280;34607;48.520;-1.330;2022-12-18T21:19:54;100015.03;;;7.84;100.00
48796;BME280;34607;48.520;-1.330;2022-12-18T21:22:22;100017.63;;;7.85;100.00
48796;BME280;34607;48.520;-1.330;2022-12-18T21:24:49;100036.50;;;7.84;100.00
48796;BME280;34607;48.520;-1.330;2022-12-18T21:27:16;100034.06;;;7.91;100.00
48796;BME280;34607;48.520;-1.330;2022-12-18T21:29:44;100031.44;;;7.87;100.00
48796;BME280;34607;48.520;-1.330;2022-12-18T21:32:13;100028.81;;;7.86;100.00
48796;BME280;34607;48.520;-1.330;2022-12-18T21:34:40;100039.19;;;7.89;100.00